メインページ
METAR-TAF:

METAR-TAF

空港 :

ベイラ, モザンビーク

緯度: 19-48S, 経度: 034-54E, 海抜: 8m

現時点の気象観測

当レポートは59分前の10:00(UTC)に作成
気温 26°C
湿度 70%
気圧 1020 hPa
視程10km以上
高度1800ftの雲はほとんどない

METAR: FQBR 251000Z /////KT 9999 FEW018 26/20 Q1020

時間: 12:59 (10:59 UTC)

予報

当レポートは6時間59分前の04:00(UTC)に作成
予報は25日の 06時(UTC)から 26日の 12時(UTC)まで有効
の風 10kt
視程10km以上
高度2000ftの雲は散在している
25日の 13時(UTC)から 25日の 15時(UTC)まで徐々に
東/南東の風 10kt
26日の 00時(UTC)から 26日の 02時(UTC)まで徐々に
南/南西の風 6kt

TAF: FQBR 250400Z 2506/2612 17010KT 9999 SCT020 TX26/2513Z TN20/2603Z BECMG 2513/2515 11010KT BECMG 2600/2602 20006KT

4,000以上の空港の気象観測と天気予報(METAR報とTAF報)

利用可能な観測所は地図上に黄色い丸と赤い丸で示す。

丸の上にカーソルを重ねると観測所名を参照できる。

次にクリックすると気象観測と天気予報を参照できる。

マップの切り替え:黒色「×」印の緑ボタンをクリックして拡大、「-」印の緑ボタンをクリックして縮小、緑色の三角印をクリックして隣りの地図に切り替え


METAR-TAF: